sensor_id;sensor_type;location;lat;lon;timestamp;pressure;altitude;pressure_sealevel;temperature;humidity
78679;BME280;67994;59.334;13.528;2023-06-19T00:00:00;100900.0;;;17.2;89.3
78679;BME280;67994;59.334;13.528;2023-06-19T00:01:00;100900.0;;;17.3;89.0
78679;BME280;67994;59.334;13.528;2023-06-19T00:02:00;100900.0;;;17.2;89.3
78679;BME280;67994;59.334;13.528;2023-06-19T00:03:00;100900.0;;;17.2;89.3
78679;BME280;67994;59.334;13.528;2023-06-19T00:04:00;100900.0;;;17.2;89.2
78679;BME280;67994;59.334;13.528;2023-06-19T00:05:00;100900.0;;;17.2;89.3
78679;BME280;67994;59.334;13.528;2023-06-19T00:06:00;100900.0;;;17.2;89.4
78679;BME280;67994;59.334;13.528;2023-06-19T00:07:00;100900.0;;;17.1;89.8
78679;BME280;67994;59.334;13.528;2023-06-19T00:08:00;100900.0;;;17.1;89.8
78679;BME280;67994;59.334;13.528;2023-06-19T00:09:00;100900.0;;;17.2;89.5
78679;BME280;67994;59.334;13.528;2023-06-19T00:10:00;100900.0;;;17.2;89.3
78679;BME280;67994;59.334;13.528;2023-06-19T00:11:00;100900.0;;;17.2;89.5
78679;BME280;67994;59.334;13.528;2023-06-19T00:12:00;100900.0;;;17.2;89.3
78679;BME280;67994;59.334;13.528;2023-06-19T00:13:00;100900.0;;;17.2;89.1
78679;BME280;67994;59.334;13.528;2023-06-19T00:14:00;100900.0;;;17.2;89.2
78679;BME280;67994;59.334;13.528;2023-06-19T00:15:00;100900.0;;;17.1;89.4
78679;BME280;67994;59.334;13.528;2023-06-19T00:16:01;100900.0;;;17.2;89.0
78679;BME280;67994;59.334;13.528;2023-06-19T00:17:00;100900.0;;;17.1;89.3
78679;BME280;67994;59.334;13.528;2023-06-19T00:18:00;100900.0;;;17.1;89.5
78679;BME280;67994;59.334;13.528;2023-06-19T00:19:00;100900.0;;;17.1;89.2
78679;BME280;67994;59.334;13.528;2023-06-19T00:20:00;100900.0;;;17.2;88.9
78679;BME280;67994;59.334;13.528;2023-06-19T00:21:00;100900.0;;;17.1;89.0
78679;BME280;67994;59.334;13.528;2023-06-19T00:22:00;100900.0;;;17.2;88.8
78679;BME280;67994;59.334;13.528;2023-06-19T00:23:00;100900.0;;;17.2;88.9
78679;BME280;67994;59.334;13.528;2023-06-19T00:24:00;100900.0;;;17.2;88.7
78679;BME280;67994;59.334;13.528;2023-06-19T00:25:00;100900.0;;;17.2;88.9
78679;BME280;67994;59.334;13.528;2023-06-19T00:26:00;100900.0;;;17.2;89.1
78679;BME280;67994;59.334;13.528;2023-06-19T00:27:00;100900.0;;;17.2;89.1
78679;BME280;67994;59.334;13.528;2023-06-19T00:28:00;100900.0;;;17.2;88.8
78679;BME280;67994;59.334;13.528;2023-06-19T00:29:00;100900.0;;;17.2;88.7
78679;BME280;67994;59.334;13.528;2023-06-19T00:30:00;100900.0;;;17.3;88.7
78679;BME280;67994;59.334;13.528;2023-06-19T00:31:00;100900.0;;;17.3;88.7
78679;BME280;67994;59.334;13.528;2023-06-19T00:32:00;100900.0;;;17.2;88.8
78679;BME280;67994;59.334;13.528;2023-06-19T00:33:00;100900.0;;;17.2;89.1
78679;BME280;67994;59.334;13.528;2023-06-19T00:34:00;100900.0;;;17.2;88.9
78679;BME280;67994;59.334;13.528;2023-06-19T00:35:00;100900.0;;;17.2;88.9
78679;BME280;67994;59.334;13.528;2023-06-19T00:36:00;100900.0;;;17.3;88.8
78679;BME280;67994;59.334;13.528;2023-06-19T00:37:00;100900.0;;;17.3;88.5
78679;BME280;67994;59.334;13.528;2023-06-19T00:38:00;100900.0;;;17.3;88.6
78679;BME280;67994;59.334;13.528;2023-06-19T00:39:00;100900.0;;;17.2;88.9
78679;BME280;67994;59.334;13.528;2023-06-19T00:40:00;100900.0;;;17.2;89.0
78679;BME280;67994;59.334;13.528;2023-06-19T00:41:00;100900.0;;;17.2;88.9
78679;BME280;67994;59.334;13.528;2023-06-19T00:42:01;100900.0;;;17.2;88.9
78679;BME280;67994;59.334;13.528;2023-06-19T00:43:01;100900.0;;;17.2;88.7
78679;BME280;67994;59.334;13.528;2023-06-19T00:44:00;100900.0;;;17.1;89.0
78679;BME280;67994;59.334;13.528;2023-06-19T00:45:00;100900.0;;;17.2;88.6
78679;BME280;67994;59.334;13.528;2023-06-19T00:46:01;100900.0;;;17.1;88.8
78679;BME280;67994;59.334;13.528;2023-06-19T00:47:02;100900.0;;;17.1;88.6
78679;BME280;67994;59.334;13.528;2023-06-19T00:48:00;100900.0;;;17.2;88.7
78679;BME280;67994;59.334;13.528;2023-06-19T00:49:00;100900.0;;;17.2;88.1
78679;BME280;67994;59.334;13.528;2023-06-19T00:50:00;100900.0;;;17.1;88.5
78679;BME280;67994;59.334;13.528;2023-06-19T00:51:00;100900.0;;;17.1;88.6
78679;BME280;67994;59.334;13.528;2023-06-19T00:52:01;100900.0;;;17.1;88.6
78679;BME280;67994;59.334;13.528;2023-06-19T00:53:02;100900.0;;;17.1;88.5
78679;BME280;67994;59.334;13.528;2023-06-19T00:54:01;100900.0;;;17.1;88.6
78679;BME280;67994;59.334;13.528;2023-06-19T00:55:03;100900.0;;;17.2;88.3
78679;BME280;67994;59.334;13.528;2023-06-19T00:56:01;100900.0;;;17.2;88.3
78679;BME280;67994;59.334;13.528;2023-06-19T00:57:01;100900.0;;;17.2;88.3
78679;BME280;67994;59.334;13.528;2023-06-19T00:58:01;100900.0;;;17.1;88.7
78679;BME280;67994;59.334;13.528;2023-06-19T00:59:01;100900.0;;;17.2;88.5
78679;BME280;67994;59.334;13.528;2023-06-19T01:00:00;100900.0;;;17.1;88.6
78679;BME280;67994;59.334;13.528;2023-06-19T01:01:00;100900.0;;;17.0;88.9
78679;BME280;67994;59.334;13.528;2023-06-19T01:02:01;100900.0;;;17.1;88.4
78679;BME280;67994;59.334;13.528;2023-06-19T01:03:00;100900.0;;;17.0;88.7
78679;BME280;67994;59.334;13.528;2023-06-19T01:04:00;100900.0;;;17.0;89.1
78679;BME280;67994;59.334;13.528;2023-06-19T01:05:01;100900.0;;;16.9;89.2
78679;BME280;67994;59.334;13.528;2023-06-19T01:06:00;100900.0;;;16.9;89.3
78679;BME280;67994;59.334;13.528;2023-06-19T01:07:05;100900.0;;;17.0;89.1
78679;BME280;67994;59.334;13.528;2023-06-19T01:08:10;100900.0;;;17.0;88.7
78679;BME280;67994;59.334;13.528;2023-06-19T01:09:02;100900.0;;;17.0;88.8
78679;BME280;67994;59.334;13.528;2023-06-19T01:10:02;100900.0;;;17.0;89.0
78679;BME280;67994;59.334;13.528;2023-06-19T01:11:02;100900.0;;;16.9;89.1
78679;BME280;67994;59.334;13.528;2023-06-19T01:12:04;100900.0;;;17.0;88.7
78679;BME280;67994;59.334;13.528;2023-06-19T01:13:05;100900.0;;;17.0;88.8
78679;BME280;67994;59.334;13.528;2023-06-19T01:14:04;100900.0;;;17.0;88.9
78679;BME280;67994;59.334;13.528;2023-06-19T01:15:03;100900.0;;;17.0;88.7
78679;BME280;67994;59.334;13.528;2023-06-19T01:16:02;100900.0;;;17.0;88.6
78679;BME280;67994;59.334;13.528;2023-06-19T01:17:00;100900.0;;;16.9;89.0
78679;BME280;67994;59.334;13.528;2023-06-19T01:18:01;100900.0;;;16.9;88.8
78679;BME280;67994;59.334;13.528;2023-06-19T01:19:00;100900.0;;;17.0;88.7
78679;BME280;67994;59.334;13.528;2023-06-19T01:20:01;100900.0;;;17.0;88.9
78679;BME280;67994;59.334;13.528;2023-06-19T01:21:09;100900.0;;;17.0;88.8
78679;BME280;67994;59.334;13.528;2023-06-19T01:22:03;100900.0;;;16.9;89.2
78679;BME280;67994;59.334;13.528;2023-06-19T01:23:05;100900.0;;;16.9;89.1
78679;BME280;67994;59.334;13.528;2023-06-19T01:24:00;100900.0;;;17.0;88.7
78679;BME280;67994;59.334;13.528;2023-06-19T01:25:00;100900.0;;;17.0;88.9
78679;BME280;67994;59.334;13.528;2023-06-19T01:26:00;100900.0;;;16.9;89.2
78679;BME280;67994;59.334;13.528;2023-06-19T01:27:00;100900.0;;;17.0;88.8
78679;BME280;67994;59.334;13.528;2023-06-19T01:28:00;100900.0;;;17.0;88.6
78679;BME280;67994;59.334;13.528;2023-06-19T01:29:00;100900.0;;;17.0;88.7
78679;BME280;67994;59.334;13.528;2023-06-19T01:30:02;100900.0;;;17.0;88.8
78679;BME280;67994;59.334;13.528;2023-06-19T01:31:01;100900.0;;;17.0;88.8
78679;BME280;67994;59.334;13.528;2023-06-19T01:32:05;100900.0;;;17.0;88.7
78679;BME280;67994;59.334;13.528;2023-06-19T01:33:05;100900.0;;;17.1;88.8
78679;BME280;67994;59.334;13.528;2023-06-19T01:34:01;100900.0;;;17.1;88.8
78679;BME280;67994;59.334;13.528;2023-06-19T01:35:01;100900.0;;;17.0;89.0
78679;BME280;67994;59.334;13.528;2023-06-19T01:36:00;100900.0;;;17.0;88.9
78679;BME280;67994;59.334;13.528;2023-06-19T01:37:01;100900.0;;;17.0;88.9
78679;BME280;67994;59.334;13.528;2023-06-19T01:38:01;100900.0;;;17.1;88.7
78679;BME280;67994;59.334;13.528;2023-06-19T01:39:00;100900.0;;;17.0;88.8
78679;BME280;67994;59.334;13.528;2023-06-19T01:40:02;100900.0;;;17.1;88.4
78679;BME280;67994;59.334;13.528;2023-06-19T01:41:01;100900.0;;;17.1;88.6
78679;BME280;67994;59.334;13.528;2023-06-19T01:42:01;100900.0;;;17.0;88.9
78679;BME280;67994;59.334;13.528;2023-06-19T01:43:01;100900.0;;;17.0;89.1
78679;BME280;67994;59.334;13.528;2023-06-19T01:44:00;100900.0;;;17.0;88.9
78679;BME280;67994;59.334;13.528;2023-06-19T01:45:00;100900.0;;;17.0;88.9
78679;BME280;67994;59.334;13.528;2023-06-19T01:46:00;100900.0;;;17.1;88.6
78679;BME280;67994;59.334;13.528;2023-06-19T01:47:06;100900.0;;;17.1;88.5
78679;BME280;67994;59.334;13.528;2023-06-19T01:48:00;100900.0;;;17.1;88.8
78679;BME280;67994;59.334;13.528;2023-06-19T01:49:00;100900.0;;;17.0;88.8
78679;BME280;67994;59.334;13.528;2023-06-19T01:50:01;100900.0;;;17.1;88.1
78679;BME280;67994;59.334;13.528;2023-06-19T01:51:00;100900.0;;;17.2;88.2
78679;BME280;67994;59.334;13.528;2023-06-19T01:52:00;100900.0;;;17.1;88.6
78679;BME280;67994;59.334;13.528;2023-06-19T01:53:00;100900.0;;;17.0;89.1
78679;BME280;67994;59.334;13.528;2023-06-19T01:54:00;100900.0;;;17.0;89.0
78679;BME280;67994;59.334;13.528;2023-06-19T01:55:00;100900.0;;;17.0;88.7
78679;BME280;67994;59.334;13.528;2023-06-19T01:56:01;100900.0;;;17.0;88.9
78679;BME280;67994;59.334;13.528;2023-06-19T01:57:00;100900.0;;;17.0;88.7
78679;BME280;67994;59.334;13.528;2023-06-19T01:58:00;100900.0;;;17.1;88.4
78679;BME280;67994;59.334;13.528;2023-06-19T01:59:00;100900.0;;;17.1;88.6
78679;BME280;67994;59.334;13.528;2023-06-19T02:00:00;100900.0;;;17.1;88.8
78679;BME280;67994;59.334;13.528;2023-06-19T02:01:01;100900.0;;;17.1;88.8
78679;BME280;67994;59.334;13.528;2023-06-19T02:02:00;100900.0;;;17.1;88.6
78679;BME280;67994;59.334;13.528;2023-06-19T02:03:00;100900.0;;;17.1;88.9
78679;BME280;67994;59.334;13.528;2023-06-19T02:04:00;100900.0;;;17.1;88.7
78679;BME280;67994;59.334;13.528;2023-06-19T02:05:00;100900.0;;;17.1;88.7
78679;BME280;67994;59.334;13.528;2023-06-19T02:06:00;100900.0;;;17.2;88.5
78679;BME280;67994;59.334;13.528;2023-06-19T02:07:00;100900.0;;;17.2;88.3
78679;BME280;67994;59.334;13.528;2023-06-19T02:08:00;100900.0;;;17.1;88.8
78679;BME280;67994;59.334;13.528;2023-06-19T02:09:00;100900.0;;;17.1;88.5
78679;BME280;67994;59.334;13.528;2023-06-19T02:10:00;100900.0;;;17.2;88.4
78679;BME280;67994;59.334;13.528;2023-06-19T02:11:00;100900.0;;;17.2;88.4
78679;BME280;67994;59.334;13.528;2023-06-19T02:12:00;100900.0;;;17.2;88.3
78679;BME280;67994;59.334;13.528;2023-06-19T02:13:00;100900.0;;;17.2;88.3
78679;BME280;67994;59.334;13.528;2023-06-19T02:14:00;100900.0;;;17.1;88.0
78679;BME280;67994;59.334;13.528;2023-06-19T02:15:00;100900.0;;;17.2;88.0
78679;BME280;67994;59.334;13.528;2023-06-19T02:16:00;100900.0;;;17.2;88.3
78679;BME280;67994;59.334;13.528;2023-06-19T02:17:00;100900.0;;;17.1;89.0
78679;BME280;67994;59.334;13.528;2023-06-19T02:18:00;100900.0;;;17.0;88.9
78679;BME280;67994;59.334;13.528;2023-06-19T02:19:00;100900.0;;;17.1;88.4
78679;BME280;67994;59.334;13.528;2023-06-19T02:20:01;100900.0;;;17.2;88.1
78679;BME280;67994;59.334;13.528;2023-06-19T02:21:00;100900.0;;;17.2;88.6
78679;BME280;67994;59.334;13.528;2023-06-19T02:22:00;100900.0;;;17.2;88.0
78679;BME280;67994;59.334;13.528;2023-06-19T02:23:00;100900.0;;;17.2;88.0
78679;BME280;67994;59.334;13.528;2023-06-19T02:24:00;100900.0;;;17.2;88.1
78679;BME280;67994;59.334;13.528;2023-06-19T02:25:00;100900.0;;;17.2;88.3
78679;BME280;67994;59.334;13.528;2023-06-19T02:26:00;100900.0;;;17.2;88.2
78679;BME280;67994;59.334;13.528;2023-06-19T02:27:00;100900.0;;;17.2;88.2
78679;BME280;67994;59.334;13.528;2023-06-19T02:28:00;100900.0;;;17.2;88.1
78679;BME280;67994;59.334;13.528;2023-06-19T02:29:00;100900.0;;;17.3;88.2
78679;BME280;67994;59.334;13.528;2023-06-19T02:30:00;100900.0;;;17.2;88.7
78679;BME280;67994;59.334;13.528;2023-06-19T02:31:00;100900.0;;;17.1;89.2
78679;BME280;67994;59.334;13.528;2023-06-19T02:32:00;100900.0;;;17.1;89.0
78679;BME280;67994;59.334;13.528;2023-06-19T02:33:00;100900.0;;;17.1;89.2
78679;BME280;67994;59.334;13.528;2023-06-19T02:34:00;100900.0;;;17.1;89.3
78679;BME280;67994;59.334;13.528;2023-06-19T02:35:00;100900.0;;;17.0;89.6
78679;BME280;67994;59.334;13.528;2023-06-19T02:36:00;100900.0;;;17.0;89.7
78679;BME280;67994;59.334;13.528;2023-06-19T02:37:00;100900.0;;;17.0;89.6
78679;BME280;67994;59.334;13.528;2023-06-19T02:38:00;100900.0;;;17.1;89.6
78679;BME280;67994;59.334;13.528;2023-06-19T02:39:01;100900.0;;;17.1;89.7
78679;BME280;67994;59.334;13.528;2023-06-19T02:40:00;100900.0;;;17.0;89.7
78679;BME280;67994;59.334;13.528;2023-06-19T02:41:00;100900.0;;;17.1;89.2
78679;BME280;67994;59.334;13.528;2023-06-19T02:42:00;100900.0;;;17.2;88.7
78679;BME280;67994;59.334;13.528;2023-06-19T02:43:00;100900.0;;;17.2;88.4
78679;BME280;67994;59.334;13.528;2023-06-19T02:44:00;100900.0;;;17.2;88.5
78679;BME280;67994;59.334;13.528;2023-06-19T02:45:00;100900.0;;;17.2;88.7
78679;BME280;67994;59.334;13.528;2023-06-19T02:46:00;100900.0;;;17.1;88.7
78679;BME280;67994;59.334;13.528;2023-06-19T02:47:00;100900.0;;;17.3;88.6
78679;BME280;67994;59.334;13.528;2023-06-19T02:48:00;100900.0;;;17.3;88.5
78679;BME280;67994;59.334;13.528;2023-06-19T02:49:00;100900.0;;;17.3;88.2
78679;BME280;67994;59.334;13.528;2023-06-19T02:50:02;100900.0;;;17.2;88.6
78679;BME280;67994;59.334;13.528;2023-06-19T02:51:00;100900.0;;;17.3;88.1
78679;BME280;67994;59.334;13.528;2023-06-19T02:52:00;100900.0;;;17.3;88.4
78679;BME280;67994;59.334;13.528;2023-06-19T02:53:00;100900.0;;;17.3;88.7
78679;BME280;67994;59.334;13.528;2023-06-19T02:54:00;100900.0;;;17.3;88.5
78679;BME280;67994;59.334;13.528;2023-06-19T02:55:00;100900.0;;;17.3;89.1
78679;BME280;67994;59.334;13.528;2023-06-19T02:56:00;100900.0;;;17.2;88.9
78679;BME280;67994;59.334;13.528;2023-06-19T02:57:00;100900.0;;;17.2;89.1
78679;BME280;67994;59.334;13.528;2023-06-19T02:58:00;100900.0;;;17.2;88.6
78679;BME280;67994;59.334;13.528;2023-06-19T02:59:00;100900.0;;;17.2;89.1
78679;BME280;67994;59.334;13.528;2023-06-19T03:00:00;100900.0;;;17.2;89.1
78679;BME280;67994;59.334;13.528;2023-06-19T03:01:00;100900.0;;;17.1;89.7
78679;BME280;67994;59.334;13.528;2023-06-19T03:02:00;100900.0;;;17.2;88.7
78679;BME280;67994;59.334;13.528;2023-06-19T03:03:00;100900.0;;;17.2;89.2
78679;BME280;67994;59.334;13.528;2023-06-19T03:04:00;100900.0;;;17.2;89.5
78679;BME280;67994;59.334;13.528;2023-06-19T03:05:02;100900.0;;;17.0;90.0
78679;BME280;67994;59.334;13.528;2023-06-19T03:06:00;100900.0;;;17.1;89.4
78679;BME280;67994;59.334;13.528;2023-06-19T03:07:00;100900.0;;;17.2;89.1
78679;BME280;67994;59.334;13.528;2023-06-19T03:08:00;100900.0;;;17.3;88.7
78679;BME280;67994;59.334;13.528;2023-06-19T03:09:00;100900.0;;;17.2;89.4
78679;BME280;67994;59.334;13.528;2023-06-19T03:10:00;100900.0;;;17.2;89.1
78679;BME280;67994;59.334;13.528;2023-06-19T03:11:01;100900.0;;;17.2;89.2
78679;BME280;67994;59.334;13.528;2023-06-19T03:12:00;100900.0;;;17.3;88.9
78679;BME280;67994;59.334;13.528;2023-06-19T03:13:00;100900.0;;;17.2;89.4
78679;BME280;67994;59.334;13.528;2023-06-19T03:14:00;100900.0;;;17.2;88.9
78679;BME280;67994;59.334;13.528;2023-06-19T03:15:00;100900.0;;;17.2;89.3
78679;BME280;67994;59.334;13.528;2023-06-19T03:16:00;100900.0;;;17.3;88.8
78679;BME280;67994;59.334;13.528;2023-06-19T03:17:00;100900.0;;;17.3;89.1
78679;BME280;67994;59.334;13.528;2023-06-19T03:18:00;100900.0;;;17.3;88.9
78679;BME280;67994;59.334;13.528;2023-06-19T03:19:01;100900.0;;;17.3;89.4
78679;BME280;67994;59.334;13.528;2023-06-19T03:20:00;100900.0;;;17.2;89.2
78679;BME280;67994;59.334;13.528;2023-06-19T03:21:00;100900.0;;;17.3;88.9
78679;BME280;67994;59.334;13.528;2023-06-19T03:22:00;100900.0;;;17.3;89.1
78679;BME280;67994;59.334;13.528;2023-06-19T03:23:00;100900.0;;;17.3;89.0
78679;BME280;67994;59.334;13.528;2023-06-19T03:24:00;100900.0;;;17.1;89.8
78679;BME280;67994;59.334;13.528;2023-06-19T03:25:00;100900.0;;;17.0;90.4
78679;BME280;67994;59.334;13.528;2023-06-19T03:26:00;100900.0;;;17.1;89.9
78679;BME280;67994;59.334;13.528;2023-06-19T03:27:00;100900.0;;;17.1;90.1
78679;BME280;67994;59.334;13.528;2023-06-19T03:28:01;100900.0;;;16.9;90.4
78679;BME280;67994;59.334;13.528;2023-06-19T03:29:00;100900.0;;;17.0;89.9
78679;BME280;67994;59.334;13.528;2023-06-19T03:30:00;100900.0;;;16.9;90.2
78679;BME280;67994;59.334;13.528;2023-06-19T03:31:00;100900.0;;;17.0;89.8
78679;BME280;67994;59.334;13.528;2023-06-19T03:32:00;100900.0;;;16.9;89.9
78679;BME280;67994;59.334;13.528;2023-06-19T03:33:00;100900.0;;;16.9;89.7
78679;BME280;67994;59.334;13.528;2023-06-19T03:34:00;100900.0;;;17.0;89.7
78679;BME280;67994;59.334;13.528;2023-06-19T03:35:01;100900.0;;;16.9;89.8
78679;BME280;67994;59.334;13.528;2023-06-19T03:36:00;100900.0;;;17.1;89.4
78679;BME280;67994;59.334;13.528;2023-06-19T03:37:00;100900.0;;;17.2;89.0
78679;BME280;67994;59.334;13.528;2023-06-19T03:38:00;100900.0;;;17.2;88.9
78679;BME280;67994;59.334;13.528;2023-06-19T03:39:00;100900.0;;;17.1;89.3
78679;BME280;67994;59.334;13.528;2023-06-19T03:40:00;100900.0;;;17.0;89.3
78679;BME280;67994;59.334;13.528;2023-06-19T03:41:00;100900.0;;;17.0;89.4
78679;BME280;67994;59.334;13.528;2023-06-19T03:42:00;100900.0;;;17.1;89.3
78679;BME280;67994;59.334;13.528;2023-06-19T03:43:00;100900.0;;;17.0;89.5
78679;BME280;67994;59.334;13.528;2023-06-19T03:44:00;100900.0;;;16.9;89.8
78679;BME280;67994;59.334;13.528;2023-06-19T03:45:00;100900.0;;;16.9;89.7
78679;BME280;67994;59.334;13.528;2023-06-19T03:46:00;100900.0;;;16.9;89.7
78679;BME280;67994;59.334;13.528;2023-06-19T03:47:00;100900.0;;;17.2;88.7
78679;BME280;67994;59.334;13.528;2023-06-19T03:48:00;100900.0;;;17.2;88.6
78679;BME280;67994;59.334;13.528;2023-06-19T03:49:00;100900.0;;;17.2;88.8
78679;BME280;67994;59.334;13.528;2023-06-19T03:50:00;100900.0;;;17.3;88.4
78679;BME280;67994;59.334;13.528;2023-06-19T03:51:00;100900.0;;;17.2;88.7
78679;BME280;67994;59.334;13.528;2023-06-19T03:52:00;100900.0;;;17.3;88.2
78679;BME280;67994;59.334;13.528;2023-06-19T03:53:00;100900.0;;;17.3;88.5
78679;BME280;67994;59.334;13.528;2023-06-19T03:54:00;100900.0;;;17.2;89.1
78679;BME280;67994;59.334;13.528;2023-06-19T03:55:00;100900.0;;;17.2;88.8
78679;BME280;67994;59.334;13.528;2023-06-19T03:56:00;100900.0;;;17.2;88.8
78679;BME280;67994;59.334;13.528;2023-06-19T03:57:00;100900.0;;;17.1;89.0
78679;BME280;67994;59.334;13.528;2023-06-19T03:58:00;100900.0;;;17.1;88.8
78679;BME280;67994;59.334;13.528;2023-06-19T03:59:00;100900.0;;;17.1;88.9
78679;BME280;67994;59.334;13.528;2023-06-19T04:00:00;100900.0;;;17.0;89.2
78679;BME280;67994;59.334;13.528;2023-06-19T04:01:00;100900.0;;;17.1;88.8
78679;BME280;67994;59.334;13.528;2023-06-19T04:02:00;100900.0;;;17.2;88.3
78679;BME280;67994;59.334;13.528;2023-06-19T04:03:00;100900.0;;;17.2;88.4
78679;BME280;67994;59.334;13.528;2023-06-19T04:04:00;100900.0;;;17.1;88.6
78679;BME280;67994;59.334;13.528;2023-06-19T04:05:00;100900.0;;;17.1;88.5
78679;BME280;67994;59.334;13.528;2023-06-19T04:06:00;100900.0;;;17.1;88.3
78679;BME280;67994;59.334;13.528;2023-06-19T04:07:00;100900.0;;;17.0;88.8
78679;BME280;67994;59.334;13.528;2023-06-19T04:08:00;100900.0;;;17.0;88.8
78679;BME280;67994;59.334;13.528;2023-06-19T04:09:00;100900.0;;;17.1;88.6
78679;BME280;67994;59.334;13.528;2023-06-19T04:10:00;100900.0;;;17.1;88.6
78679;BME280;67994;59.334;13.528;2023-06-19T04:11:00;100900.0;;;17.1;88.1
78679;BME280;67994;59.334;13.528;2023-06-19T04:12:00;100900.0;;;16.9;89.2
78679;BME280;67994;59.334;13.528;2023-06-19T04:13:00;100900.0;;;16.8;89.4
78679;BME280;67994;59.334;13.528;2023-06-19T04:14:00;100900.0;;;16.9;89.1
78679;BME280;67994;59.334;13.528;2023-06-19T04:15:00;100900.0;;;16.9;89.2
78679;BME280;67994;59.334;13.528;2023-06-19T04:16:00;100900.0;;;17.0;88.8
78679;BME280;67994;59.334;13.528;2023-06-19T04:17:00;100900.0;;;17.0;88.8
78679;BME280;67994;59.334;13.528;2023-06-19T04:18:00;100900.0;;;17.1;88.4
78679;BME280;67994;59.334;13.528;2023-06-19T04:19:00;100900.0;;;17.1;88.0
78679;BME280;67994;59.334;13.528;2023-06-19T04:20:00;100900.0;;;17.0;88.3
78679;BME280;67994;59.334;13.528;2023-06-19T04:21:00;100900.0;;;17.1;88.4
78679;BME280;67994;59.334;13.528;2023-06-19T04:22:00;100900.0;;;17.0;88.6
78679;BME280;67994;59.334;13.528;2023-06-19T04:23:00;100900.0;;;17.0;88.6
78679;BME280;67994;59.334;13.528;2023-06-19T04:24:00;100900.0;;;16.9;89.1
78679;BME280;67994;59.334;13.528;2023-06-19T04:25:00;100900.0;;;17.0;89.1
78679;BME280;67994;59.334;13.528;2023-06-19T04:26:00;100900.0;;;17.1;88.7
78679;BME280;67994;59.334;13.528;2023-06-19T04:27:00;100900.0;;;17.1;88.6
78679;BME280;67994;59.334;13.528;2023-06-19T04:28:00;100900.0;;;17.0;88.8
78679;BME280;67994;59.334;13.528;2023-06-19T04:29:00;100900.0;;;16.8;89.5
78679;BME280;67994;59.334;13.528;2023-06-19T04:30:02;100900.0;;;17.0;89.0
78679;BME280;67994;59.334;13.528;2023-06-19T04:31:00;100900.0;;;17.0;89.3
78679;BME280;67994;59.334;13.528;2023-06-19T04:32:01;100900.0;;;17.4;88.9
78679;BME280;67994;59.334;13.528;2023-06-19T04:33:00;100900.0;;;17.5;88.0
78679;BME280;67994;59.334;13.528;2023-06-19T04:34:00;100900.0;;;17.5;87.4
78679;BME280;67994;59.334;13.528;2023-06-19T04:35:00;100900.0;;;17.4;87.9
78679;BME280;67994;59.334;13.528;2023-06-19T04:36:00;100900.0;;;17.4;87.9
78679;BME280;67994;59.334;13.528;2023-06-19T04:37:00;100900.0;;;17.2;88.0
78679;BME280;67994;59.334;13.528;2023-06-19T04:38:00;100900.0;;;17.2;88.2
78679;BME280;67994;59.334;13.528;2023-06-19T04:39:00;100900.0;;;17.5;87.6
78679;BME280;67994;59.334;13.528;2023-06-19T04:40:00;100900.0;;;17.6;87.2
78679;BME280;67994;59.334;13.528;2023-06-19T04:41:00;100900.0;;;17.4;87.6
78679;BME280;67994;59.334;13.528;2023-06-19T04:42:00;100900.0;;;17.4;87.5
78679;BME280;67994;59.334;13.528;2023-06-19T04:43:01;100900.0;;;17.1;88.4
78679;BME280;67994;59.334;13.528;2023-06-19T04:44:00;100900.0;;;17.3;87.8
78679;BME280;67994;59.334;13.528;2023-06-19T04:45:00;100900.0;;;17.4;87.9
78679;BME280;67994;59.334;13.528;2023-06-19T04:46:00;100900.0;;;17.4;87.3
78679;BME280;67994;59.334;13.528;2023-06-19T04:47:00;100900.0;;;17.5;87.1
78679;BME280;67994;59.334;13.528;2023-06-19T04:48:00;100900.0;;;17.4;87.7
78679;BME280;67994;59.334;13.528;2023-06-19T04:49:00;100900.0;;;17.3;87.6
78679;BME280;67994;59.334;13.528;2023-06-19T04:50:00;100900.0;;;17.0;88.3
78679;BME280;67994;59.334;13.528;2023-06-19T04:51:00;100900.0;;;17.1;88.5
78679;BME280;67994;59.334;13.528;2023-06-19T04:52:00;100900.0;;;17.1;88.4
78679;BME280;67994;59.334;13.528;2023-06-19T04:53:00;100900.0;;;17.2;88.0
78679;BME280;67994;59.334;13.528;2023-06-19T04:54:00;100900.0;;;17.1;88.2
78679;BME280;67994;59.334;13.528;2023-06-19T04:55:00;100900.0;;;17.2;88.0
78679;BME280;67994;59.334;13.528;2023-06-19T04:56:00;100900.0;;;17.2;88.1
78679;BME280;67994;59.334;13.528;2023-06-19T04:57:00;100900.0;;;17.0;88.6
78679;BME280;67994;59.334;13.528;2023-06-19T04:58:00;100900.0;;;17.0;88.4
78679;BME280;67994;59.334;13.528;2023-06-19T04:59:00;100900.0;;;17.2;88.0
78679;BME280;67994;59.334;13.528;2023-06-19T05:00:00;100900.0;;;17.1;88.3
78679;BME280;67994;59.334;13.528;2023-06-19T05:01:00;100900.0;;;17.3;87.6
78679;BME280;67994;59.334;13.528;2023-06-19T05:02:00;100900.0;;;17.3;87.9
78679;BME280;67994;59.334;13.528;2023-06-19T05:03:00;100900.0;;;16.9;88.9
78679;BME280;67994;59.334;13.528;2023-06-19T05:04:00;100900.0;;;17.2;87.7
78679;BME280;67994;59.334;13.528;2023-06-19T05:05:00;100900.0;;;17.3;88.1
78679;BME280;67994;59.334;13.528;2023-06-19T05:06:00;100900.0;;;17.2;88.0
78679;BME280;67994;59.334;13.528;2023-06-19T05:07:00;100900.0;;;17.4;87.6
78679;BME280;67994;59.334;13.528;2023-06-19T05:08:01;100900.0;;;17.4;87.9
78679;BME280;67994;59.334;13.528;2023-06-19T05:09:00;100900.0;;;17.5;87.3
78679;BME280;67994;59.334;13.528;2023-06-19T05:10:00;100900.0;;;17.6;87.6
78679;BME280;67994;59.334;13.528;2023-06-19T05:11:00;100900.0;;;17.7;87.5
78679;BME280;67994;59.334;13.528;2023-06-19T05:12:00;100900.0;;;17.5;87.7
78679;BME280;67994;59.334;13.528;2023-06-19T05:13:00;100900.0;;;17.7;87.4
78679;BME280;67994;59.334;13.528;2023-06-19T05:14:00;100900.0;;;17.3;88.3
78679;BME280;67994;59.334;13.528;2023-06-19T05:15:00;100900.0;;;17.5;87.5
78679;BME280;67994;59.334;13.528;2023-06-19T05:16:01;100900.0;;;17.7;87.2
78679;BME280;67994;59.334;13.528;2023-06-19T05:17:00;100900.0;;;17.7;87.4
78679;BME280;67994;59.334;13.528;2023-06-19T05:18:00;100900.0;;;17.3;88.4
78679;BME280;67994;59.334;13.528;2023-06-19T05:19:00;100900.0;;;17.7;87.3
78679;BME280;67994;59.334;13.528;2023-06-19T05:20:00;100900.0;;;17.8;87.2
78679;BME280;67994;59.334;13.528;2023-06-19T05:21:00;100900.0;;;17.9;87.1